• Join FlightAware (Why Join?)
  • Login
  • US Flag 
02:28PM EDT


 

Airport Tracker/Info


-or-


 

Live Flight TrackerFlight Track Log ✈ UPS2958 ✈ 22-May-2012 ✈ KSDF - KMHR

Flight Track Log - Related Links

Times and Time Zones

All times are in EDT time to prevent confusion due to time zone crossing. See the UPS2958 flight status page for this flight to view local times or setup timezone preferences in your user account.

Time Position Orientation Groundspeed Altitude Reporting Facility
EDT Latitude Longitude Course Direction KTS MPH feet Rate Location/Type
03:56PM 38.1242 -85.7394 189° South 189 217 2,400  Level FAA TRACON SMA TRACON (SMA)
03:57PM 38.0806 -85.7481 233° Southwest 240 276 3,600 2,280 Climbing FAA TRACON SMA TRACON (SMA)
03:58PM 38.0556 -85.7903 275° West 258 297 5,500 3,180 Climbing FAA TRACON SMA TRACON (SMA)
03:58PM 38.0597 -85.8550 276° West 270 311 7,700 3,060 Climbing FAA TRACON SMA TRACON (SMA)
03:59PM 38.0658 -85.9253 272° West 293 337 9,600 2,160 Climbing FAA TRACON SMA TRACON (SMA)
04:00PM 38.0681 -85.9914 266° West 308 354 10,600 1,500 Climbing FAA TRACON SMA TRACON (SMA)
04:00PM 38.0633 -86.0761 265° West 357 411 11,600 2,160 Climbing FAA TRACON SMA TRACON (SMA)
04:01PM 38.0569 -86.1708 266° West 393 452 13,500 2,820 Climbing FAA TRACON SMA TRACON (SMA)
04:02PM 38.0519 -86.2572 265° West 399 459 15,400 2,760 Climbing FAA TRACON SMA TRACON (SMA)
04:02PM 38.0447 -86.3575 265° West 415 478 17,300 2,820 Climbing FAA TRACON SMA TRACON (SMA)
04:03PM 38.0372 -86.4586 267° West 419 482 19,200 2,400 Climbing FAA TRACON SMA TRACON (SMA)
04:04PM 38.0350 -86.5103 263° West 414 476 20,100 2,100 Climbing Indianapolis Center
04:05PM 38.0208 -86.6600 264° West 429 494 22,400 2,160 Climbing Indianapolis Center
04:06PM 38.0081 -86.8231 279° West 448 516 24,500 1,980 Climbing Indianapolis Center
04:07PM 38.0286 -86.9819 283° West 454 522 26,500 2,040 Climbing Indianapolis Center
04:08PM 38.0608 -87.1603 285° West 465 535 28,700 1,740 Climbing Indianapolis Center
04:08PM 38.0933 -87.3203 283° West 470 541 30,000 960 Climbing Indianapolis Center
04:11PM 38.1611 -87.7022 282° West 467 537 32,000 540 Climbing Kansas City Center
04:12PM 38.1892 -87.8661 276° West 467 537 32,000  Level Kansas City Center
04:13PM 38.2019 -88.0236 275° West 462 532 32,100  Climbing Kansas City Center
04:14PM 38.2128 -88.1867 275° West 462 532 32,100  Level Kansas City Center
04:15PM 38.2233 -88.3444 276° West 457 526 32,100  Level Kansas City Center
04:16PM 38.2356 -88.5019 275° West 457 526 32,100  Level Kansas City Center
04:17PM 38.2475 -88.6622 275° West 457 526 32,100  Level Kansas City Center
04:18PM 38.2597 -88.8281 273° West 462 532 32,100  Level Kansas City Center
04:19PM 38.2664 -88.9703 276° West 462 532 32,100  Level Kansas City Center
04:20PM 38.2808 -89.1492 274° West 462 532 32,100  Level Kansas City Center
04:21PM 38.2894 -89.2967 274° West 462 532 32,100  Level Kansas City Center
04:22PM 38.2992 -89.4761 276° West 462 532 32,100  Level Kansas City Center
04:23PM 38.3117 -89.6261 274° West 462 532 32,100  Level Kansas City Center
04:24PM 38.3211 -89.8053 275° West 457 526 32,100 300 Level Kansas City Center
04:25PM 38.3308 -89.9503 275° West 457 526 32,800 900 Climbing Kansas City Center
04:26PM 38.3417 -90.1244 274° West 457 526 34,000 600 Climbing Kansas City Center
04:27PM 38.3486 -90.2644 274° West 457 526 34,100  Climbing Kansas City Center
04:28PM 38.3589 -90.4386 274° West 457 526 34,100  Level Kansas City Center
04:29PM 38.3656 -90.5786 274° West 452 520 34,100  Level Kansas City Center
04:30PM 38.3750 -90.7369 274° West 452 520 34,100  Level Kansas City Center
04:31PM 38.3844 -90.9086 274° West 452 520 34,100  Level Kansas City Center
04:32PM 38.3928 -91.0489 273° West 452 520 34,100  Level Kansas City Center
04:33PM 38.3994 -91.2075 274° West 447 514 34,100  Level Kansas City Center
04:34PM 38.4072 -91.3450 274° West 447 514 34,100  Level Kansas City Center
04:35PM 38.4186 -91.5406 273° West 452 520 34,100  Level Kansas City Center
04:36PM 38.4244 -91.6992 274° West 457 526 34,100  Level Kansas City Center
04:37PM 38.4322 -91.8553 273° West 457 526 34,100  Level Kansas City Center
04:38PM 38.4397 -92.0142 273° West 457 526 34,100  Level Kansas City Center
04:39PM 38.4450 -92.1706 274° West 457 526 34,100  Level Kansas City Center
04:40PM 38.4542 -92.3319 272° West 457 526 34,100  Level Kansas City Center
04:41PM 38.4592 -92.4883 273° West 452 520 34,100  Level Kansas City Center
04:42PM 38.4658 -92.6444 272° West 452 520 34,100  Level Kansas City Center
04:43PM 38.4703 -92.8008 273° West 452 520 34,100  Level Kansas City Center
04:44PM 38.4761 -92.9281 272° West 452 520 34,100  Level Kansas City Center
04:45PM 38.4806 -93.1161 273° West 447 514 34,100  Level Kansas City Center
04:46PM 38.4864 -93.2725 271° West 447 514 34,100  Level Kansas City Center
04:47PM 38.4881 -93.4292 274° West 447 514 34,100  Level Kansas City Center
04:48PM 38.4956 -93.5881 272° West 447 514 34,100  Level Kansas City Center
04:49PM 38.4989 -93.7447 269° West 442 509 34,100  Level Kansas City Center
04:50PM 38.4975 -93.8986 272° West 437 503 34,100  Level Kansas City Center
04:51PM 38.5025 -94.0522 271° West 437 503 34,100 -60 Level Kansas City Center
04:52PM 38.5050 -94.1956 272° West 443 510 34,000 -60 Descending Kansas City Center
04:53PM 38.5094 -94.3467 272° West 436 502 34,000  Level Kansas City Center
04:54PM 38.5136 -94.5192 271° West 442 509 34,100  Climbing Kansas City Center
04:55PM 38.5156 -94.6731 271° West 442 509 34,100  Level Kansas City Center
04:56PM 38.5175 -94.8297 272° West 442 509 34,100  Level Kansas City Center
04:57PM 38.5211 -94.9731 272° West 442 509 34,100  Level Kansas City Center
04:58PM 38.5244 -95.1403 272° West 442 509 34,100  Level Kansas City Center
04:59PM 38.5278 -95.2969 270° West 442 509 34,100  Level Kansas City Center
05:00PM 38.5286 -95.4589 271° West 447 514 34,100  Level Kansas City Center
05:01PM 38.5297 -95.5994 271° West 452 520 34,100  Level Kansas City Center
05:02PM 38.5322 -95.7533 271° West 452 520 34,100  Level Kansas City Center
05:03PM 38.5347 -95.9100 270° West 447 514 34,100  Level Kansas City Center
05:04PM 38.5347 -96.0667 271° West 442 509 34,100  Level Kansas City Center
05:05PM 38.5367 -96.2392 271° West 442 509 34,100  Level Kansas City Center
05:06PM 38.5383 -96.3958 271° West 442 509 34,100  Level Kansas City Center
05:07PM 38.5400 -96.5500 270° West 442 509 34,100  Level Kansas City Center
05:08PM 38.5394 -96.7064 271° West 442 509 34,100  Level Kansas City Center
05:09PM 38.5406 -96.8631 271° West 437 503 34,100  Level Kansas City Center
05:10PM 38.5419 -97.0014 270° West 437 503 34,100  Level Kansas City Center
05:11PM 38.5408 -97.1553 270° West 442 509 34,100  Level Kansas City Center
05:12PM 38.5411 -97.3225 269° West 436 502 34,100  Level Kansas City Center
05:13PM 38.5394 -97.4789 270° West 442 509 34,100  Level Kansas City Center
05:14PM 38.5400 -97.6169 269° West 442 509 34,100  Level Kansas City Center
05:15PM 38.5381 -97.7736 270° West 442 509 34,100  Level Kansas City Center
05:16PM 38.5378 -97.9275 270° West 442 509 34,100  Level Kansas City Center
05:17PM 38.5375 -98.0842 269° West 442 509 34,100  Level Kansas City Center
05:18PM 38.5347 -98.2381 270° West 442 509 34,100  Level Kansas City Center
05:19PM 38.5339 -98.3944 269° West 442 509 34,100  Level Kansas City Center
05:20PM 38.5308 -98.5511 269° West 442 509 34,100  Level Kansas City Center
05:21PM 38.5278 -98.7047 269° West 442 509 34,100  Level Kansas City Center
05:22PM 38.5261 -98.8614 268° West 442 509 34,100  Level Kansas City Center
05:23PM 38.5225 -99.0178 269° West 442 509 34,100  Level Kansas City Center
05:24PM 38.5206 -99.1742 269° West 442 509 34,100  Level Kansas City Center
05:25PM 38.5186 -99.3306 268° West 442 509 34,100  Level Kansas City Center
05:26PM 38.5142 -99.4869 268° West 442 509 34,100  Level Kansas City Center
05:27PM 38.5092 -99.6564 268° West 437 503 34,100  Level Kansas City Center
05:28PM 38.5044 -99.8128 269° West 450 518 34,100  Level Kansas City Center
05:29PM 38.5022 -99.9558 264° West 450 518 34,100  Level Kansas City Center
05:30PM 38.4878 -100.1300 263° West 450 518 34,100  Level Kansas City Center
05:31PM 38.4719 -100.2878 263° West 455 524 34,100  Level Kansas City Center
05:32PM 38.4558 -100.4458 262° West 455 524 34,100  Level Kansas City Center
05:33PM 38.4406 -100.5850 262° West 460 529 34,100  Level Kansas City Center
05:34PM 38.4119 -100.8378 262° West 451 519 34,100  Level Denver Center
05:35PM 38.3961 -100.9886 262° West 452 520 34,100  Level Denver Center
05:37PM 38.3769 -101.1628 262° West 449 517 34,100  Level Denver Center
05:38PM 38.3597 -101.3131 262° West 449 517 34,100  Level Denver Center
05:39PM 38.3400 -101.4903 262° West 452 520 34,100  Level Denver Center
05:40PM 38.3200 -101.6664 261° West 451 519 34,100  Level Denver Center
05:41PM 38.3019 -101.8161 262° West 450 518 34,100  Level Denver Center
05:42PM 38.2814 -101.9917 262° West 449 517 34,100  Level Denver Center
05:43PM 38.2642 -102.1408 261° West 448 516 34,100  Level Denver Center
05:44PM 38.2428 -102.3150 261° West 447 514 34,100  Level Denver Center
05:45PM 38.2244 -102.4639 261° West 447 514 34,100  Level Denver Center
05:46PM 38.2039 -102.6378 264° West 446 513 34,100  Level Denver Center
05:47PM 38.1906 -102.7878 268° West 446 513 34,100  Level Denver Center
05:48PM 38.1850 -102.9622 266° West 444 511 34,100  Level Denver Center
05:49PM 38.1767 -103.1136 267° West 447 514 34,100  Level Denver Center
05:50PM 38.1686 -103.2947 266° West 449 517 34,100  Level Denver Center
05:51PM 38.1611 -103.4464 266° West 450 518 34,100  Level Denver Center
05:52PM 38.1511 -103.6225 266° West 450 518 34,100  Level Denver Center
05:53PM 38.1431 -103.7733 266° West 449 517 34,100  Level Denver Center
05:54PM 38.1328 -103.9497 266° West 450 518 34,100  Level Denver Center
05:55PM 38.1242 -104.1014 266° West 451 519 34,100  Level Denver Center
05:56PM 38.1139 -104.2769 266° West 449 517 34,100  Level Denver Center
05:57PM 38.1053 -104.4256 265° West 446 513 34,100  Level Denver Center
05:58PM 38.0942 -104.6025 265° West 450 518 34,100  Level Denver Center
05:59PM 38.0844 -104.7514 266° West 447 514 34,100  Level Denver Center
06:00PM 38.0742 -104.9239 265° West 443 510 34,100  Level Denver Center
06:01PM 38.0642 -105.0714 265° West 440 506 34,100  Level Denver Center
06:03PM 38.0531 -105.2425 265° West 438 504 34,100  Level Denver Center
06:04PM 38.0417 -105.4139 265° West 438 504 34,100  Level Denver Center
06:05PM 38.0314 -105.5592 265° West 435 501 34,100  Level Denver Center
06:06PM 38.0197 -105.7283 265° West 433 498 34,100  Level Denver Center
06:07PM 38.0094 -105.8742 265° West 433 498 34,100  Level Denver Center
06:08PM 37.9986 -106.0428 272° West 431 496 34,100  Level Denver Center
06:09PM 38.0019 -106.1878 272° West 431 496 34,100  Level Denver Center
06:10PM 38.0056 -106.3558 271° West 428 493 34,100  Level Denver Center
06:11PM 38.0075 -106.5014 271° West 431 496 34,100  Level Denver Center
06:12PM 38.0094 -106.6711 271° West 434 499 34,100  Level Denver Center
06:13PM 38.0106 -106.8164 271° West 431 496 34,100  Level Denver Center
06:14PM 38.0128 -106.9858 271° West 430 495 34,100  Level Denver Center
06:15PM 38.0139 -107.1328 271° West 433 498 34,100  Level Denver Center
06:16PM 38.0153 -107.3019 270° West 431 496 34,100  Level Denver Center
06:17PM 38.0158 -107.4469 270° West 431 496 34,100  Level Denver Center
06:18PM 38.0164 -107.6183 270° West 432 497 34,100  Level Denver Center
06:19PM 38.0158 -107.7656 271° West 434 499 34,100  Level Denver Center
06:20PM 38.0169 -107.9356 270° West 433 498 34,100  Level Denver Center
06:21PM 38.0161 -108.0806 270° West 432 497 34,100  Level Denver Center
06:22PM 38.0158 -108.2453 270° West 427 491 34,100  Level Denver Center
06:23PM 38.0158 -108.3875 270° West 424 488 34,100  Level Denver Center
06:24PM 38.0147 -108.5550 270° West 424 488 34,100  Level Denver Center
06:25PM 38.0142 -108.6997 270° West 425 489 34,100  Level Denver Center
06:26PM 38.0133 -108.8683 269° West 426 490 34,100  Level Denver Center
06:28PM 38.0119 -109.0153 269° West 426 490 34,100  Level Denver Center
06:29PM 38.0106 -109.1681 269° West 428 493 34,100  Level Denver Center
06:30PM 38.0092 -109.3214 269° West 429 494 34,100  Level Denver Center
06:31PM 38.0078 -109.4933 269° West 425 489 34,100  Level Denver Center
06:32PM 38.0053 -109.6344 269° West 421 484 34,100  Level Denver Center
06:33PM 38.0031 -109.7964 269° West 415 478 34,100  Level Denver Center
06:34PM 38.0006 -109.9361 274° West 415 478 34,100  Level Denver Center
06:35PM 38.0092 -110.0958 278° West 409 471 34,100  Level Denver Center
06:36PM 38.0269 -110.2589 278° West 415 478 34,100  Level Denver Center
06:37PM 38.0417 -110.3975 277° West 415 478 34,100  Level Denver Center
06:38PM 38.0578 -110.5600 277° West 415 478 34,100  Level Denver Center
06:39PM 38.0719 -110.6986 277° West 415 478 34,100  Level Denver Center
06:40PM 38.0867 -110.8600 277° West 413 475 34,100  Level Denver Center
06:41PM 38.1022 -111.0333 278° West 413 475 34,100  Level Salt Lake Center
06:42PM 38.1178 -111.1814 278° West 414 476 34,100  Level Salt Lake Center
06:43PM 38.1331 -111.3289 277° West 416 479 34,100  Level Salt Lake Center
06:44PM 38.1467 -111.4756 277° West 414 476 34,100  Level Salt Lake Center
06:45PM 38.1597 -111.6219 277° West 413 475 34,100  Level Salt Lake Center
06:47PM 38.1756 -111.7969 277° West 411 473 34,100  Level Salt Lake Center
06:48PM 38.1889 -111.9431 276° West 411 473 34,100  Level Salt Lake Center
06:49PM 38.2017 -112.0886 276° West 410 472 34,100  Level Salt Lake Center
06:50PM 38.2144 -112.2331 276° West 409 471 34,100  Level Salt Lake Center
06:51PM 38.2264 -112.3781 276° West 408 470 34,100 -60 Level Salt Lake Center
06:52PM 38.2381 -112.5222 276° West 406 467 34,000  Descending Salt Lake Center
06:53PM 38.2500 -112.6672 276° West 407 468 34,100  Climbing Salt Lake Center
06:54PM 38.2622 -112.8122 276° West 408 470 34,100  Level Salt Lake Center
06:55PM 38.2744 -112.9578 276° West 408 470 34,100  Level Salt Lake Center
06:56PM 38.2858 -113.1022 276° West 408 470 34,100  Level Salt Lake Center
06:57PM 38.2969 -113.2467 276° West 406 467 34,100  Level Salt Lake Center
06:58PM 38.3100 -113.4192 276° West 405 466 34,100  Level Salt Lake Center
06:59PM 38.3208 -113.5619 275° West 403 464 34,100  Level Salt Lake Center
07:00PM 38.3311 -113.7053 275° West 402 463 34,100  Level Salt Lake Center
07:01PM 38.3414 -113.8478 275° West 401 461 34,100  Level Salt Lake Center
07:02PM 38.3519 -113.9908 275° West 400 460 34,100  Level Salt Lake Center
07:03PM 38.3622 -114.1356 275° West 403 464 34,100  Level Salt Lake Center
07:04PM 38.3714 -114.2789 275° West 403 464 34,100  Level Salt Lake Center
07:05PM 38.3808 -114.4228 275° West 402 463 34,100  Level Salt Lake Center
07:06PM 38.3903 -114.5667 275° West 402 463 34,100  Level Salt Lake Center
07:07PM 38.4000 -114.7103 275° West 402 463 34,100 -60 Level Salt Lake Center
07:08PM 38.4089 -114.8519 274° West 398 458 34,000 -60 Descending Salt Lake Center
07:09PM 38.4175 -114.9942 274° West 397 457 34,000  Level Salt Lake Center
07:10PM 38.4275 -115.1633 275° West 395 455 34,100  Climbing Salt Lake Center
07:11PM 38.4364 -115.3056 274° West 396 456 34,100  Level Salt Lake Center
07:12PM 38.4444 -115.4497 274° West 403 464 34,100  Level Salt Lake Center
07:13PM 38.4525 -115.5936 274° West 406 467 34,100  Level Salt Lake Center
07:14PM 38.4608 -115.7378 274° West 407 468 34,100 -60 Level Salt Lake Center
07:15PM 38.4686 -115.8800 274° West 405 466 34,000  Descending Salt Lake Center
07:16PM 38.4761 -116.0222 274° West 403 464 34,100  Climbing Salt Lake Center
07:18PM 38.4853 -116.1919 274° West 402 463 34,000  Descending Salt Lake Center
07:19PM 38.4931 -116.3344 273° West 402 463 34,100  Climbing Salt Lake Center
07:20PM 38.4992 -116.4800 274° West 407 468 34,000  Descending Salt Lake Center
07:21PM 38.5061 -116.6211 273° West 404 465 34,100  Climbing Salt Lake Center
07:22PM 38.5125 -116.7625 273° West 402 463 34,100  Level Salt Lake Center
07:23PM 38.5203 -116.9317 274° West 401 461 34,100  Level Salt Lake Center
07:24PM 38.5269 -117.0717 273° West 399 459 34,100  Level Salt Lake Center
07:25PM 38.5325 -117.2114 273° West 398 458 34,100  Level Salt Lake Center
07:26PM 38.5381 -117.3506 274° West 397 457 34,100  Level Salt Lake Center
07:27PM 38.5447 -117.4897 273° West 396 456 34,100  Level Salt Lake Center
07:28PM 38.5511 -117.6564 273° West 395 455 34,100  Level Salt Lake Center
07:29PM 38.5569 -117.7964 273° West 396 456 34,100 -540 Level Salt Lake Center
07:30PM 38.5619 -117.9350 273° West 394 453 33,000 -1,080 Descending Salt Lake Center
07:31PM 38.5667 -118.0753 276° West 395 455 31,900 -1,200 Descending Salt Lake Center
07:32PM 38.5778 -118.2150 275° West 396 456 30,600 -1,200 Descending Salt Lake Center
07:33PM 38.5878 -118.3553 275° West 397 457 29,500 -780 Descending Salt Lake Center
07:34PM 38.5978 -118.5094 275° West 399 459 29,000 -780 Descending Salt Lake Center
07:35PM 38.6081 -118.6747 275° West 402 463 27,900 -1,080 Descending Oakland Center
07:36PM 38.6169 -118.8153 274° West 402 463 26,700 -1,140 Descending Oakland Center
07:37PM 38.6236 -118.9558 276° West 402 463 25,700 -1,020 Descending Oakland Center
07:38PM 38.6342 -119.0858 273° West 397 457 24,700 -1,020 Descending Oakland Center
07:39PM 38.6406 -119.2372 276° West 377 434 23,500 -1,080 Descending Oakland Center
07:40PM 38.6508 -119.3647 273° West 370 426 22,500 -780 Descending Oakland Center
07:41PM 38.6567 -119.4922 274° West 363 418 22,000 -240 Descending Oakland Center
07:42PM 38.6644 -119.6331 275° West 363 418 22,100 -60 Climbing Oakland Center
07:43PM 38.6722 -119.7606 278° West 363 418 21,900 -600 Descending Oakland Center
07:44PM 38.6858 -119.8853 273° West 363 418 20,900 -960 Descending Oakland Center
07:45PM 38.6911 -120.0103 273° West 363 418 20,000 -1,320 Descending Oakland Center
07:46PM 38.6964 -120.1328 274° West 358 412 18,300 -1,860 Descending Oakland Center
07:47PM 38.7033 -120.2522 275° West 352 405 16,300 -1,980 Descending Oakland Center
07:48PM 38.7103 -120.3639 274° West 340 391 14,400 -2,220 Descending Oakland Center
07:49PM 38.7172 -120.4811 276° West 329 379 11,900 -2,160 Descending Oakland Center
07:50PM 38.7258 -120.5956 276° West 329 379 10,100 -1,020 Descending Oakland Center
07:51PM 38.7344 -120.6967 275° West 313 360 9,900 -960 Descending Oakland Center
07:52PM 38.7408 -120.7897 275° West 284 327 8,200 -1,620 Descending Oakland Center
07:53PM 38.7472 -120.8883 265° West 278 320 6,700 -1,200 Descending Oakland Center
07:54PM 38.7411 -120.9789 231° Southwest 267 307 5,900 -900 Descending Oakland Center
07:55PM 38.6994 -121.0453 239° Southwest 245 282 4,900 -1,200 Descending Oakland Center
07:57PM 38.6500 -121.1500 230° Southwest 187 215 2,700 -1,200 Descending Northern Cal TRACON
07:58PM 38.6167 -121.2000 230° Southwest 173 199 1,700 -1,020 Descending Northern Cal TRACON